Time;durP1;ratioP1;P1;durP2;ratioP2;P2;SDS_P1;SDS_P2;PMS_P1;PMS_P2;Temp;Humidity;BMP_temperature;BMP_pressure;BME280_temperature;BME280_humidity;BME280_pressure;Samples;Min_cycle;Max_cycle;Signal;HPM_P1;HPM_P2
2021/07/15 00:02:18;;;;;;;12.13;8.23;;;;;;;;;;4977024;28;20030;-74
2021/07/15 00:04:44;;;;;;;14.75;10.45;;;;;;;;;;4977445;28;20488;-74
2021/07/15 00:07:10;;;;;;;26.90;9.45;;;;;;;;;;4977129;28;20026;-74
2021/07/15 00:09:36;;;;;;;14.43;8.95;;;;;;;;;;4976782;28;20444;-74
2021/07/15 00:12:03;;;;;;;18.33;8.70;;;;;;;;;;4977108;28;20366;-74
2021/07/15 00:14:29;;;;;;;16.80;9.57;;;;;;;;;;4976640;28;20027;-74
2021/07/15 00:16:57;;;;;;;31.85;10.90;;;;;;;;;;4977197;28;20030;-74
2021/07/15 00:19:24;;;;;;;15.32;8.60;;;;;;;;;;4976380;28;20081;-73
2021/07/15 00:21:50;;;;;;;21.80;10.07;;;;;;;;;;4976487;28;20377;-74
2021/07/15 00:24:17;;;;;;;19.15;10.40;;;;;;;;;;4976713;28;20366;-74
2021/07/15 00:26:43;;;;;;;23.60;11.88;;;;;;;;;;4976565;28;20033;-74
2021/07/15 00:29:09;;;;;;;15.35;9.80;;;;;;;;;;4976327;28;20038;-74
2021/07/15 00:31:35;;;;;;;18.27;11.45;;;;;;;;;;4976376;28;20030;-74
2021/07/15 00:34:02;;;;;;;12.27;8.88;;;;;;;;;;4977025;28;20031;-74
2021/07/15 00:36:28;;;;;;;15.57;8.93;;;;;;;;;;4976527;28;20496;-74
2021/07/15 00:38:54;;;;;;;16.70;10.88;;;;;;;;;;4976562;28;20042;-74
2021/07/15 00:41:20;;;;;;;19.50;8.48;;;;;;;;;;4976276;28;20031;-74
2021/07/15 00:43:46;;;;;;;20.15;11.05;;;;;;;;;;4976032;28;20031;-74
2021/07/15 00:46:12;;;;;;;18.00;8.25;;;;;;;;;;4976146;28;20031;-73
2021/07/15 00:48:38;;;;;;;20.48;10.02;;;;;;;;;;4976493;28;20026;-74
2021/07/15 00:51:05;;;;;;;22.35;9.30;;;;;;;;;;4976672;28;20023;-74
2021/07/15 00:53:31;;;;;;;12.38;8.45;;;;;;;;;;4975963;28;20031;-74
2021/07/15 00:55:57;;;;;;;11.07;7.72;;;;;;;;;;4975704;28;20062;-72
2021/07/15 00:58:23;;;;;;;16.90;8.75;;;;;;;;;;4975364;28;20031;-73
2021/07/15 01:00:50;;;;;;;21.00;9.80;;;;;;;;;;4976089;28;20089;-72
2021/07/15 01:03:16;;;;;;;15.25;8.20;;;;;;;;;;4976008;28;20377;-72
2021/07/15 01:05:43;;;;;;;23.08;9.57;;;;;;;;;;4975844;28;20377;-72
2021/07/15 01:08:09;;;;;;;21.70;10.23;;;;;;;;;;4975953;28;20453;-73
2021/07/15 01:10:36;;;;;;;21.13;8.40;;;;;;;;;;4975827;28;20034;-73
2021/07/15 01:13:07;;;;;;;21.92;8.82;;;;;;;;;;4975361;28;20031;-73
2021/07/15 01:15:36;;;;;;;13.95;8.30;;;;;;;;;;4975700;28;20037;-73
2021/07/15 01:18:19;;;;;;;22.83;9.55;;;;;;;;;;4975641;28;20385;-73
2021/07/15 01:20:55;;;;;;;13.32;7.13;;;;;;;;;;4975937;28;20038;-73
2021/07/15 01:23:26;;;;;;;16.75;8.95;;;;;;;;;;4975892;28;20481;-74
2021/07/15 01:26:03;;;;;;;11.27;8.23;;;;;;;;;;4975815;28;20038;-72
2021/07/15 01:28:49;;;;;;;16.27;8.50;;;;;;;;;;4976178;28;20045;-73
2021/07/15 01:31:15;;;;;;;11.23;8.52;;;;;;;;;;5001753;28;20133;-72
2021/07/15 01:33:41;;;;;;;13.60;8.43;;;;;;;;;;4975478;28;20034;-73
2021/07/15 01:36:09;;;;;;;17.98;9.43;;;;;;;;;;4975282;28;20031;-73
2021/07/15 01:38:36;;;;;;;18.55;9.57;;;;;;;;;;4975554;28;20038;-73
2021/07/15 01:41:03;;;;;;;15.02;9.05;;;;;;;;;;4975772;28;20030;-72
2021/07/15 01:43:32;;;;;;;18.25;8.15;;;;;;;;;;4975198;28;20027;-75
2021/07/15 01:45:58;;;;;;;16.15;9.27;;;;;;;;;;4975604;28;20085;-74
2021/07/15 01:48:25;;;;;;;19.40;7.93;;;;;;;;;;4975240;28;20062;-74
2021/07/15 01:50:51;;;;;;;18.55;8.82;;;;;;;;;;4974954;28;20034;-74
2021/07/15 01:53:17;;;;;;;14.38;9.27;;;;;;;;;;4975307;28;20082;-74
2021/07/15 01:55:43;;;;;;;14.20;9.32;;;;;;;;;;4975418;28;20051;-74
2021/07/15 01:58:09;;;;;;;16.92;7.97;;;;;;;;;;4975114;28;20031;-74
2021/07/15 02:00:35;;;;;;;14.70;8.07;;;;;;;;;;4975561;28;20168;-74
2021/07/15 02:03:02;;;;;;;15.77;8.95;;;;;;;;;;4975660;28;20051;-74
2021/07/15 02:05:28;;;;;;;17.95;7.45;;;;;;;;;;4974777;28;20101;-74
2021/07/15 02:07:54;;;;;;;28.83;9.13;;;;;;;;;;4974993;28;20094;-73
2021/07/15 02:10:22;;;;;;;15.85;9.85;;;;;;;;;;4976287;28;20034;-72
2021/07/15 02:12:48;;;;;;;17.33;8.18;;;;;;;;;;4979101;28;20023;-73
2021/07/15 02:15:14;;;;;;;17.67;9.93;;;;;;;;;;4978881;28;20018;-72
2021/07/15 02:17:40;;;;;;;17.48;8.60;;;;;;;;;;4978638;28;20122;-73
2021/07/15 02:20:08;;;;;;;14.40;8.52;;;;;;;;;;4978467;28;20051;-73
2021/07/15 02:22:34;;;;;;;19.02;9.85;;;;;;;;;;4978753;28;20038;-73
2021/07/15 02:25:00;;;;;;;15.65;9.85;;;;;;;;;;4978679;28;20031;-73
2021/07/15 02:27:26;;;;;;;13.45;8.45;;;;;;;;;;4978550;28;20074;-74
2021/07/15 02:29:52;;;;;;;15.68;8.82;;;;;;;;;;4979186;28;20023;-73
2021/07/15 02:32:18;;;;;;;13.07;8.60;;;;;;;;;;4978983;28;20077;-73
2021/07/15 02:35:01;;;;;;;17.45;8.75;;;;;;;;;;4978552;28;20033;-73
2021/07/15 02:37:30;;;;;;;14.15;8.65;;;;;;;;;;4978708;28;20034;-74
2021/07/15 02:39:56;;;;;;;15.35;8.82;;;;;;;;;;4978441;28;20042;-73
2021/07/15 02:42:22;;;;;;;14.10;9.38;;;;;;;;;;4978505;28;20027;-73
2021/07/15 02:44:48;;;;;;;13.93;8.80;;;;;;;;;;4978381;28;20022;-72
2021/07/15 02:47:14;;;;;;;14.27;7.88;;;;;;;;;;4978453;28;20073;-74
2021/07/15 02:49:41;;;;;;;23.60;9.07;;;;;;;;;;4978109;28;20062;-73
2021/07/15 02:52:07;;;;;;;14.05;9.50;;;;;;;;;;4978423;28;20102;-72
2021/07/15 02:54:33;;;;;;;13.32;8.13;;;;;;;;;;4977966;28;20050;-72
2021/07/15 02:57:05;;;;;;;12.60;8.68;;;;;;;;;;4978430;28;20118;-73
2021/07/15 02:59:41;;;;;;;17.60;10.13;;;;;;;;;;4978007;28;20023;-74
2021/07/15 03:02:11;;;;;;;10.90;8.52;;;;;;;;;;4978781;28;20041;-75
2021/07/15 03:04:39;;;;;;;13.55;8.52;;;;;;;;;;4978573;28;20033;-74
2021/07/15 03:07:07;;;;;;;10.85;7.80;;;;;;;;;;4978135;28;20050;-74
2021/07/15 03:09:33;;;;;;;13.88;8.18;;;;;;;;;;4978059;28;20059;-75
2021/07/15 03:12:19;;;;;;;13.38;9.35;;;;;;;;;;4978316;28;20035;-74
2021/07/15 03:14:46;;;;;;;12.90;8.88;;;;;;;;;;5004433;28;20372;-74
2021/07/15 03:17:13;;;;;;;19.08;9.30;;;;;;;;;;4978336;28;20027;-74
2021/07/15 03:19:41;;;;;;;9.43;8.48;;;;;;;;;;4977511;28;20491;-75
2021/07/15 03:22:07;;;;;;;13.65;9.70;;;;;;;;;;4977017;28;20042;-74
2021/07/15 03:24:34;;;;;;;15.23;9.77;;;;;;;;;;4977812;28;20093;-74
2021/07/15 03:27:03;;;;;;;16.90;10.52;;;;;;;;;;4977469;28;20105;-74
2021/07/15 03:29:29;;;;;;;24.50;12.05;;;;;;;;;;4977503;28;20033;-75
2021/07/15 03:31:55;;;;;;;16.38;11.20;;;;;;;;;;4977417;28;20070;-74
2021/07/15 03:34:21;;;;;;;17.15;9.50;;;;;;;;;;4977388;28;20031;-71
2021/07/15 03:36:50;;;;;;;18.02;10.20;;;;;;;;;;4976761;28;20118;-71
2021/07/15 03:39:16;;;;;;;21.80;10.48;;;;;;;;;;4976945;28;20030;-72
2021/07/15 03:41:43;;;;;;;29.02;11.48;;;;;;;;;;4976652;28;20026;-72
2021/07/15 03:44:09;;;;;;;17.60;11.30;;;;;;;;;;4976934;28;20035;-72
2021/07/15 03:46:35;;;;;;;18.70;10.02;;;;;;;;;;4977276;28;20522;-71
2021/07/15 03:49:01;;;;;;;18.77;10.05;;;;;;;;;;4976868;28;20104;-71
2021/07/15 03:51:27;;;;;;;21.95;11.02;;;;;;;;;;4976455;28;20027;-72
2021/07/15 03:53:53;;;;;;;15.10;10.00;;;;;;;;;;4976802;28;20370;-74
2021/07/15 03:56:20;;;;;;;27.70;12.30;;;;;;;;;;4977035;28;20055;-73
2021/07/15 03:58:46;;;;;;;21.25;10.45;;;;;;;;;;4977338;28;20118;-73
2021/07/15 04:01:12;;;;;;;21.10;11.07;;;;;;;;;;4977677;28;20081;-73
2021/07/15 04:03:38;;;;;;;13.68;9.68;;;;;;;;;;4977078;28;20026;-73
2021/07/15 04:06:04;;;;;;;20.60;10.82;;;;;;;;;;4977206;28;20030;-73
2021/07/15 04:08:31;;;;;;;20.63;10.25;;;;;;;;;;4977150;28;20035;-71
2021/07/15 04:11:00;;;;;;;16.33;9.73;;;;;;;;;;4976103;28;20965;-70
2021/07/15 04:13:26;;;;;;;21.13;9.73;;;;;;;;;;4976246;28;20477;-74
2021/07/15 04:16:05;;;;;;;18.00;10.75;;;;;;;;;;4976700;28;20349;-71
2021/07/15 04:18:35;;;;;;;23.85;9.98;;;;;;;;;;4975921;28;20438;-71
2021/07/15 04:21:01;;;;;;;20.23;11.15;;;;;;;;;;4976356;28;20035;-71
2021/07/15 04:23:27;;;;;;;23.40;11.13;;;;;;;;;;4975505;28;20058;-72
2021/07/15 04:25:53;;;;;;;14.38;9.23;;;;;;;;;;4976443;28;20105;-72
2021/07/15 04:28:19;;;;;;;14.57;10.57;;;;;;;;;;4976544;28;20037;-71
2021/07/15 04:30:46;;;;;;;14.93;10.40;;;;;;;;;;4975777;28;20027;-71
2021/07/15 04:33:12;;;;;;;21.83;10.50;;;;;;;;;;4975284;28;20026;-70
2021/07/15 04:35:38;;;;;;;15.00;9.38;;;;;;;;;;4975780;28;20065;-71
2021/07/15 04:38:05;;;;;;;16.15;9.23;;;;;;;;;;4975344;28;20034;-70
2021/07/15 04:40:31;;;;;;;19.00;11.05;;;;;;;;;;4975928;28;20031;-71
2021/07/15 04:42:58;;;;;;;18.55;9.80;;;;;;;;;;4975572;28;20481;-70
2021/07/15 04:45:25;;;;;;;15.32;9.82;;;;;;;;;;4975585;28;20031;-71
2021/07/15 04:47:51;;;;;;;17.35;8.80;;;;;;;;;;4975652;28;20154;-71
2021/07/15 04:50:18;;;;;;;17.20;9.88;;;;;;;;;;4975688;28;20027;-71
2021/07/15 04:52:44;;;;;;;13.70;10.20;;;;;;;;;;4975380;28;20026;-71
2021/07/15 04:55:11;;;;;;;15.93;9.82;;;;;;;;;;4975457;28;20064;-72
2021/07/15 04:57:37;;;;;;;13.63;9.73;;;;;;;;;;4975215;28;20038;-72
2021/07/15 05:00:05;;;;;;;16.08;9.70;;;;;;;;;;4975677;28;20077;-72
2021/07/15 05:02:31;;;;;;;13.10;10.20;;;;;;;;;;4975458;28;20023;-72
2021/07/15 05:04:57;;;;;;;18.63;9.10;;;;;;;;;;4975417;28;20089;-72
2021/07/15 05:07:23;;;;;;;17.75;9.98;;;;;;;;;;4975277;28;20109;-72
2021/07/15 05:09:49;;;;;;;14.50;8.95;;;;;;;;;;4975125;28;20027;-71
2021/07/15 05:12:15;;;;;;;17.77;9.38;;;;;;;;;;4975713;28;20037;-71
2021/07/15 05:14:42;;;;;;;11.57;8.32;;;;;;;;;;4975400;28;20027;-71
2021/07/15 05:17:08;;;;;;;12.75;8.65;;;;;;;;;;4975170;28;20023;-71
2021/07/15 05:19:34;;;;;;;14.07;7.95;;;;;;;;;;4974919;28;20035;-72
2021/07/15 05:22:00;;;;;;;12.90;8.35;;;;;;;;;;4974783;28;20074;-71
2021/07/15 05:24:27;;;;;;;17.48;9.15;;;;;;;;;;4975530;28;20038;-72
2021/07/15 05:26:53;;;;;;;11.32;8.10;;;;;;;;;;4974991;28;20085;-72
2021/07/15 05:29:19;;;;;;;10.95;8.70;;;;;;;;;;4975093;28;20109;-72
2021/07/15 05:31:45;;;;;;;13.68;9.57;;;;;;;;;;4974419;28;20022;-70
2021/07/15 05:34:12;;;;;;;19.50;8.52;;;;;;;;;;4974910;28;20101;-70
2021/07/15 05:36:38;;;;;;;14.27;9.52;;;;;;;;;;4974698;28;20121;-70
2021/07/15 05:39:05;;;;;;;14.80;9.82;;;;;;;;;;4974979;28;20042;-70
2021/07/15 05:41:31;;;;;;;13.18;8.82;;;;;;;;;;4974793;28;20026;-71
2021/07/15 05:43:57;;;;;;;12.73;8.60;;;;;;;;;;4975038;28;20030;-69
2021/07/15 05:46:23;;;;;;;12.35;8.48;;;;;;;;;;4974913;28;20027;-69
2021/07/15 05:48:49;;;;;;;12.90;8.77;;;;;;;;;;4974640;28;20031;-70
2021/07/15 05:51:15;;;;;;;15.52;9.70;;;;;;;;;;4974494;28;20035;-70
2021/07/15 05:53:41;;;;;;;11.63;8.65;;;;;;;;;;4974430;28;20034;-70
2021/07/15 05:56:07;;;;;;;14.63;8.88;;;;;;;;;;4975197;28;20051;-70
2021/07/15 05:58:34;;;;;;;10.30;8.65;;;;;;;;;;4974161;28;20027;-70
2021/07/15 06:01:00;;;;;;;11.93;8.80;;;;;;;;;;4974842;28;20034;-70
2021/07/15 06:03:26;;;;;;;11.05;8.40;;;;;;;;;;4974509;28;20110;-69
2021/07/15 06:05:52;;;;;;;11.07;8.63;;;;;;;;;;4974445;28;20350;-70
2021/07/15 06:08:18;;;;;;;12.35;9.32;;;;;;;;;;4974626;28;20035;-69
2021/07/15 06:10:44;;;;;;;13.38;9.90;;;;;;;;;;4975027;28;20098;-70
2021/07/15 06:13:10;;;;;;;9.18;8.00;;;;;;;;;;4974598;28;20023;-70
2021/07/15 06:15:36;;;;;;;12.30;8.63;;;;;;;;;;4974331;28;20540;-70
2021/07/15 06:18:02;;;;;;;11.40;8.73;;;;;;;;;;4974326;28;20465;-70
2021/07/15 06:20:28;;;;;;;16.50;8.68;;;;;;;;;;4974253;28;20370;-70
2021/07/15 06:22:54;;;;;;;12.27;9.27;;;;;;;;;;4974476;28;20043;-70
2021/07/15 06:25:22;;;;;;;9.60;8.00;;;;;;;;;;4974517;28;20038;-70
2021/07/15 06:27:48;;;;;;;12.48;8.73;;;;;;;;;;4974104;28;20030;-70
2021/07/15 06:30:15;;;;;;;12.27;9.00;;;;;;;;;;4974287;28;20027;-69
2021/07/15 06:32:41;;;;;;;12.57;9.60;;;;;;;;;;4974038;28;20382;-69
2021/07/15 06:35:08;;;;;;;14.98;8.88;;;;;;;;;;4974235;28;20031;-70
2021/07/15 06:37:35;;;;;;;12.77;8.82;;;;;;;;;;4974154;28;20113;-70
2021/07/15 06:40:01;;;;;;;10.32;8.60;;;;;;;;;;4974334;28;20515;-70
2021/07/15 06:42:27;;;;;;;10.93;8.52;;;;;;;;;;4974071;28;20066;-70
2021/07/15 06:44:53;;;;;;;12.90;9.25;;;;;;;;;;4973897;28;20019;-70
2021/07/15 06:47:19;;;;;;;11.57;8.80;;;;;;;;;;4974129;28;20031;-70
2021/07/15 06:49:46;;;;;;;11.82;7.78;;;;;;;;;;4973367;28;20054;-69
2021/07/15 06:52:12;;;;;;;12.52;8.68;;;;;;;;;;4974072;28;20023;-69
2021/07/15 06:54:38;;;;;;;15.13;8.82;;;;;;;;;;4974376;28;20058;-70
2021/07/15 06:57:04;;;;;;;10.75;7.90;;;;;;;;;;4975966;28;20366;-70
2021/07/15 06:59:30;;;;;;;14.88;8.95;;;;;;;;;;4977497;28;20041;-70
2021/07/15 07:01:56;;;;;;;9.77;8.50;;;;;;;;;;4977511;28;20034;-71
2021/07/15 07:04:22;;;;;;;11.75;9.57;;;;;;;;;;4977390;28;20029;-72
2021/07/15 07:06:48;;;;;;;9.40;8.35;;;;;;;;;;4977547;28;20073;-71
2021/07/15 07:09:16;;;;;;;9.38;8.02;;;;;;;;;;4977652;28;20027;-71
2021/07/15 07:11:42;;;;;;;12.65;8.90;;;;;;;;;;4977164;28;20346;-71
2021/07/15 07:14:08;;;;;;;12.00;8.23;;;;;;;;;;4977482;28;20071;-71
2021/07/15 07:16:34;;;;;;;8.90;7.30;;;;;;;;;;4977506;28;20027;-71
2021/07/15 07:19:00;;;;;;;10.50;8.00;;;;;;;;;;4977075;28;20070;-70
2021/07/15 07:21:26;;;;;;;10.57;8.38;;;;;;;;;;4977098;28;20023;-71
2021/07/15 07:23:52;;;;;;;8.20;7.13;;;;;;;;;;4977574;28;20488;-70
2021/07/15 07:26:18;;;;;;;10.48;7.88;;;;;;;;;;4977165;28;20045;-69
2021/07/15 07:28:44;;;;;;;11.85;8.27;;;;;;;;;;4977004;28;20090;-69
2021/07/15 07:31:10;;;;;;;10.35;8.73;;;;;;;;;;4977235;28;20023;-72
2021/07/15 07:33:36;;;;;;;9.48;7.03;;;;;;;;;;4976534;28;20033;-72
2021/07/15 07:36:02;;;;;;;13.50;7.82;;;;;;;;;;4977651;28;20023;-72
2021/07/15 07:38:29;;;;;;;13.43;8.38;;;;;;;;;;4976811;28;20063;-72
2021/07/15 07:40:55;;;;;;;14.15;8.05;;;;;;;;;;4977235;28;20381;-72
2021/07/15 07:43:21;;;;;;;9.82;8.02;;;;;;;;;;4976819;28;20106;-73
2021/07/15 07:45:47;;;;;;;19.85;8.95;;;;;;;;;;4976432;28;20034;-73
2021/07/15 07:48:13;;;;;;;13.73;7.93;;;;;;;;;;4974968;28;20022;-73
2021/07/15 07:50:39;;;;;;;18.23;8.95;;;;;;;;;;4976622;28;20030;-75
2021/07/15 07:53:05;;;;;;;15.50;8.43;;;;;;;;;;4976694;28;20030;-73
2021/07/15 07:55:31;;;;;;;17.67;8.27;;;;;;;;;;4976138;28;20050;-74
2021/07/15 07:57:57;;;;;;;11.18;9.23;;;;;;;;;;4976687;28;20061;-75
2021/07/15 08:00:23;;;;;;;17.25;9.77;;;;;;;;;;4975606;28;20031;-72
2021/07/15 08:02:49;;;;;;;13.35;9.30;;;;;;;;;;4975712;28;20027;-73
2021/07/15 08:05:17;;;;;;;17.20;9.65;;;;;;;;;;4976146;28;20042;-73
2021/07/15 08:07:44;;;;;;;17.88;8.98;;;;;;;;;;4975254;28;20014;-73
2021/07/15 08:10:10;;;;;;;13.50;8.27;;;;;;;;;;4975936;28;20085;-72
2021/07/15 08:12:36;;;;;;;13.95;8.35;;;;;;;;;;4976824;28;20094;-74
2021/07/15 08:15:03;;;;;;;14.02;8.80;;;;;;;;;;4975978;28;20039;-72
2021/07/15 08:17:29;;;;;;;9.20;7.40;;;;;;;;;;4975953;28;20547;-73
2021/07/15 08:19:55;;;;;;;9.88;7.97;;;;;;;;;;4975763;28;20050;-73
2021/07/15 08:22:21;;;;;;;24.58;8.32;;;;;;;;;;4976195;28;20122;-72
2021/07/15 08:24:47;;;;;;;16.35;8.50;;;;;;;;;;4975652;28;20082;-71
2021/07/15 08:27:13;;;;;;;11.55;8.50;;;;;;;;;;4975958;28;20031;-73
2021/07/15 08:29:39;;;;;;;10.57;8.15;;;;;;;;;;4976265;28;20441;-73
2021/07/15 08:32:06;;;;;;;10.70;7.57;;;;;;;;;;4975342;28;20049;-74
2021/07/15 08:34:32;;;;;;;19.52;8.80;;;;;;;;;;4975597;28;20362;-71
2021/07/15 08:36:59;;;;;;;11.70;7.82;;;;;;;;;;4976241;28;20026;-71
2021/07/15 08:39:25;;;;;;;14.57;8.63;;;;;;;;;;4976324;28;20046;-71
2021/07/15 08:41:52;;;;;;;10.93;8.20;;;;;;;;;;4975466;28;20037;-71
2021/07/15 08:44:18;;;;;;;9.45;8.13;;;;;;;;;;4975507;28;20042;-71
2021/07/15 08:46:47;;;;;;;16.27;7.93;;;;;;;;;;4975355;28;20394;-72
2021/07/15 08:49:13;;;;;;;17.20;7.60;;;;;;;;;;4975734;28;20027;-73
2021/07/15 08:51:39;;;;;;;11.90;7.93;;;;;;;;;;4975227;28;20109;-72
2021/07/15 08:54:05;;;;;;;12.43;8.70;;;;;;;;;;4972970;28;20043;-73
2021/07/15 08:56:39;;;;;;;15.65;7.75;;;;;;;;;;4975479;28;20034;-70
2021/07/15 08:59:06;;;;;;;9.60;8.07;;;;;;;;;;4975288;28;20042;-70
2021/07/15 09:01:32;;;;;;;11.02;8.07;;;;;;;;;;4975237;28;20465;-70
2021/07/15 09:03:58;;;;;;;10.35;8.05;;;;;;;;;;4975257;28;20532;-71
2021/07/15 09:06:24;;;;;;;9.95;7.70;;;;;;;;;;4975413;28;20027;-72
2021/07/15 09:08:51;;;;;;;9.88;6.82;;;;;;;;;;4974822;28;20048;-72
2021/07/15 09:11:17;;;;;;;16.08;8.40;;;;;;;;;;4975303;28;20026;-74
2021/07/15 09:13:43;;;;;;;9.75;7.72;;;;;;;;;;4974990;28;20029;-72
2021/07/15 09:16:13;;;;;;;10.07;6.88;;;;;;;;;;4974727;28;20539;-72
2021/07/15 09:18:59;;;;;;;13.88;7.57;;;;;;;;;;4975264;28;20031;-69
2021/07/15 09:21:25;;;;;;;10.68;8.10;;;;;;;;;;5001234;28;20122;-70
2021/07/15 09:23:52;;;;;;;16.17;7.97;;;;;;;;;;4974373;28;20111;-69
2021/07/15 09:26:18;;;;;;;9.68;6.68;;;;;;;;;;4974907;28;20388;-69
2021/07/15 09:28:44;;;;;;;14.05;7.93;;;;;;;;;;4974934;28;20034;-70
2021/07/15 09:31:13;;;;;;;11.70;7.65;;;;;;;;;;4975090;28;20034;-69
2021/07/15 09:33:39;;;;;;;14.07;7.10;;;;;;;;;;4974778;28;20023;-73
2021/07/15 09:36:10;;;;;;;9.65;8.38;;;;;;;;;;4974967;28;20058;-70
2021/07/15 09:38:39;;;;;;;12.27;8.45;;;;;;;;;;4974710;28;20035;-69
2021/07/15 09:41:05;;;;;;;12.77;7.68;;;;;;;;;;4974869;28;20031;-69
2021/07/15 09:43:32;;;;;;;13.65;7.72;;;;;;;;;;4974437;28;20032;-70
2021/07/15 09:46:01;;;;;;;8.32;6.78;;;;;;;;;;4975198;28;20030;-70
2021/07/15 09:48:28;;;;;;;11.45;7.28;;;;;;;;;;4974533;28;20380;-70
2021/07/15 09:50:55;;;;;;;10.85;7.90;;;;;;;;;;4974853;28;20046;-70
2021/07/15 09:53:25;;;;;;;9.32;7.15;;;;;;;;;;4974466;28;20381;-70
2021/07/15 09:56:07;;;;;;;9.10;7.30;;;;;;;;;;4974296;28;20121;-71
2021/07/15 09:58:34;;;;;;;10.23;8.95;;;;;;;;;;4975064;28;20031;-71
2021/07/15 10:01:02;;;;;;;8.07;7.28;;;;;;;;;;4974543;28;20030;-70
2021/07/15 10:03:28;;;;;;;11.48;8.20;;;;;;;;;;4974561;28;20030;-71
2021/07/15 10:05:54;;;;;;;9.25;7.60;;;;;;;;;;4974416;28;20038;-70
2021/07/15 10:08:26;;;;;;;8.77;7.32;;;;;;;;;;4974432;28;20082;-70
2021/07/15 10:10:52;;;;;;;9.82;6.60;;;;;;;;;;4974634;28;20441;-70
2021/07/15 10:13:19;;;;;;;11.63;7.03;;;;;;;;;;4974487;28;20035;-70
2021/07/15 10:15:46;;;;;;;13.27;7.28;;;;;;;;;;4974352;28;20030;-70
2021/07/15 10:18:12;;;;;;;11.80;6.82;;;;;;;;;;4974664;28;20038;-70
2021/07/15 10:20:38;;;;;;;10.15;7.38;;;;;;;;;;4974351;28;20062;-70
2021/07/15 10:23:04;;;;;;;12.55;8.35;;;;;;;;;;4973999;28;20082;-70
2021/07/15 10:25:30;;;;;;;10.23;6.63;;;;;;;;;;4974039;28;20027;-70
2021/07/15 10:27:56;;;;;;;15.38;8.48;;;;;;;;;;4974197;28;20029;-70
2021/07/15 10:30:22;;;;;;;7.97;6.55;;;;;;;;;;4974825;28;20023;-71
2021/07/15 10:32:49;;;;;;;9.98;6.93;;;;;;;;;;4977769;28;20516;-71
2021/07/15 10:35:16;;;;;;;11.52;7.28;;;;;;;;;;4977966;28;20054;-70
2021/07/15 10:37:46;;;;;;;10.98;6.82;;;;;;;;;;4977467;28;20023;-70
2021/07/15 10:40:12;;;;;;;8.63;7.30;;;;;;;;;;4978313;28;20093;-70
2021/07/15 10:42:39;;;;;;;9.35;6.90;;;;;;;;;;4978399;28;20058;-70
2021/07/15 10:45:06;;;;;;;10.48;6.40;;;;;;;;;;4977747;28;20037;-70
2021/07/15 10:47:32;;;;;;;10.98;6.75;;;;;;;;;;4977184;28;20027;-70
2021/07/15 10:49:59;;;;;;;10.85;7.15;;;;;;;;;;4977331;28;20037;-71
2021/07/15 10:52:25;;;;;;;9.93;7.32;;;;;;;;;;4977358;28;20027;-70
2021/07/15 10:54:51;;;;;;;11.18;7.72;;;;;;;;;;4977459;28;20412;-71
2021/07/15 10:57:21;;;;;;;19.02;7.35;;;;;;;;;;4977675;28;20034;-70
2021/07/15 10:59:47;;;;;;;14.50;8.00;;;;;;;;;;4977383;28;20053;-71
2021/07/15 11:02:29;;;;;;;12.40;7.82;;;;;;;;;;4977682;28;20121;-70
2021/07/15 11:04:55;;;;;;;11.20;6.78;;;;;;;;;;4977607;28;20034;-71
2021/07/15 11:07:28;;;;;;;9.90;7.82;;;;;;;;;;4977427;28;20101;-70
2021/07/15 11:09:55;;;;;;;11.07;7.80;;;;;;;;;;4977879;28;20030;-70
2021/07/15 11:12:26;;;;;;;11.95;7.40;;;;;;;;;;4977229;28;20034;-70
2021/07/15 11:15:00;;;;;;;13.32;8.95;;;;;;;;;;4977629;28;20366;-71
2021/07/15 11:17:28;;;;;;;8.30;6.20;;;;;;;;;;4977150;28;20058;-70
2021/07/15 11:20:14;;;;;;;8.98;5.88;;;;;;;;;;4977556;28;20488;-70
2021/07/15 11:22:42;;;;;;;8.27;6.72;;;;;;;;;;5003323;28;20038;-71
2021/07/15 11:25:28;;;;;;;13.18;6.80;;;;;;;;;;4977121;28;20038;-71
2021/07/15 11:27:56;;;;;;;10.38;6.75;;;;;;;;;;5002877;28;20035;-71
2021/07/15 11:30:41;;;;;;;16.08;8.60;;;;;;;;;;4977267;28;20488;-71
2021/07/15 11:33:27;;;;;;;12.25;8.90;;;;;;;;;;4977062;28;20077;-71
2021/07/15 11:36:00;;;;;;;18.30;7.53;;;;;;;;;;5003212;28;20062;-71
2021/07/15 11:38:28;;;;;;;9.18;7.18;;;;;;;;;;4976882;28;20031;-71
2021/07/15 11:40:54;;;;;;;11.60;6.97;;;;;;;;;;4976916;28;20381;-71
2021/07/15 11:43:36;;;;;;;21.48;8.77;;;;;;;;;;4976656;28;20114;-71
2021/07/15 11:46:10;;;;;;;16.98;8.15;;;;;;;;;;4976955;28;20074;-69
2021/07/15 11:48:58;;;;;;;16.52;7.80;;;;;;;;;;4976720;28;20042;-70
2021/07/15 11:51:26;;;;;;;19.30;8.48;;;;;;;;;;5002453;28;20032;-70
2021/07/15 11:54:12;;;;;;;19.27;8.13;;;;;;;;;;4976949;28;20046;-70
2021/07/15 11:56:40;;;;;;;25.15;10.35;;;;;;;;;;5002666;28;20115;-70
2021/07/15 11:59:06;;;;;;;18.42;9.13;;;;;;;;;;4976370;28;20465;-71
2021/07/15 12:01:32;;;;;;;25.05;8.45;;;;;;;;;;4976109;28;20025;-70
2021/07/15 12:03:59;;;;;;;17.10;8.48;;;;;;;;;;4976684;28;20118;-70
2021/07/15 12:06:25;;;;;;;19.77;9.07;;;;;;;;;;4976456;28;20034;-70
2021/07/15 12:08:51;;;;;;;19.63;8.90;;;;;;;;;;4976533;28;20042;-70
2021/07/15 12:11:21;;;;;;;21.50;9.15;;;;;;;;;;4976205;28;20059;-70
2021/07/15 12:13:51;;;;;;;18.70;9.10;;;;;;;;;;4975848;28;20119;-70
2021/07/15 12:16:19;;;;;;;15.15;7.82;;;;;;;;;;4976227;28;20023;-71
2021/07/15 12:18:45;;;;;;;18.48;9.50;;;;;;;;;;4976222;28;20118;-71
2021/07/15 12:21:12;;;;;;;17.95;10.13;;;;;;;;;;4976425;28;20094;-71
2021/07/15 12:23:40;;;;;;;17.90;8.20;;;;;;;;;;4975810;28;20065;-71
2021/07/15 12:26:07;;;;;;;12.10;7.55;;;;;;;;;;4975711;28;20026;-71
2021/07/15 12:28:33;;;;;;;24.10;9.95;;;;;;;;;;4975769;28;20062;-70
2021/07/15 12:31:02;;;;;;;24.50;10.20;;;;;;;;;;4976141;28;20031;-70
2021/07/15 12:33:44;;;;;;;19.73;8.32;;;;;;;;;;4975742;28;20487;-71
2021/07/15 12:36:11;;;;;;;19.13;8.80;;;;;;;;;;4975747;28;20026;-70
2021/07/15 12:38:37;;;;;;;18.67;7.88;;;;;;;;;;4975736;28;20113;-70
2021/07/15 12:41:05;;;;;;;17.73;7.93;;;;;;;;;;4975531;28;20181;-70
2021/07/15 12:43:38;;;;;;;13.35;7.47;;;;;;;;;;4975524;28;20126;-70
2021/07/15 12:46:11;;;;;;;29.17;8.52;;;;;;;;;;4975420;28;20377;-70
2021/07/15 12:48:40;;;;;;;23.67;8.50;;;;;;;;;;4975738;28;20035;-70
2021/07/15 12:51:06;;;;;;;18.40;8.73;;;;;;;;;;4977731;28;20047;-70
2021/07/15 12:53:37;;;;;;;21.08;9.88;;;;;;;;;;4974740;28;20046;-70
2021/07/15 12:56:03;;;;;;;14.18;7.32;;;;;;;;;;4975887;28;20030;-70
2021/07/15 12:58:29;;;;;;;15.98;8.07;;;;;;;;;;4975404;28;20034;-70
2021/07/15 13:01:03;;;;;;;15.65;9.00;;;;;;;;;;4976007;28;20481;-70
2021/07/15 13:03:30;;;;;;;13.23;6.93;;;;;;;;;;4975340;28;20457;-70
2021/07/15 13:05:56;;;;;;;19.38;7.50;;;;;;;;;;4974919;28;20077;-71
2021/07/15 13:08:31;;;;;;;12.95;7.40;;;;;;;;;;4975296;28;20031;-70
2021/07/15 13:16:38;;;;;;;10.88;6.07;;;;;;;;;;5001211;28;20031;-71
2021/07/15 13:19:12;;;;;;;16.88;8.15;;;;;;;;;;4975363;28;20043;-70
2021/07/15 13:21:38;;;;;;;17.85;7.47;;;;;;;;;;4974813;28;20118;-71
2021/07/15 13:24:06;;;;;;;17.50;7.78;;;;;;;;;;4974934;28;20027;-71
2021/07/15 13:26:32;;;;;;;17.33;7.82;;;;;;;;;;4974803;28;20023;-71
2021/07/15 13:28:58;;;;;;;17.58;7.28;;;;;;;;;;4974527;28;20035;-71
2021/07/15 13:31:24;;;;;;;14.02;7.07;;;;;;;;;;4974568;28;20041;-71
2021/07/15 13:33:50;;;;;;;11.30;6.43;;;;;;;;;;4974689;28;20033;-71
2021/07/15 13:36:17;;;;;;;17.83;8.43;;;;;;;;;;4974829;28;20023;-70
2021/07/15 13:38:43;;;;;;;21.48;8.48;;;;;;;;;;4974570;28;20038;-71
2021/07/15 13:41:30;;;;;;;11.48;7.15;;;;;;;;;;4974781;28;20030;-71
2021/07/15 13:44:11;;;;;;;13.02;6.55;;;;;;;;;;5001206;28;20058;-71
2021/07/15 13:46:38;;;;;;;10.65;6.97;;;;;;;;;;4975281;28;20031;-71
2021/07/15 13:49:04;;;;;;;10.30;7.00;;;;;;;;;;4974587;28;20504;-70
2021/07/15 13:51:30;;;;;;;10.63;6.20;;;;;;;;;;4974660;28;20037;-71
2021/07/15 13:53:56;;;;;;;13.75;7.10;;;;;;;;;;4974609;28;20511;-72
2021/07/15 13:56:23;;;;;;;10.77;5.80;;;;;;;;;;4974515;28;20019;-71
2021/07/15 13:58:49;;;;;;;14.15;7.35;;;;;;;;;;4974970;28;20466;-71
2021/07/15 14:01:23;;;;;;;10.48;6.18;;;;;;;;;;4974532;28;20549;-71
2021/07/15 14:03:49;;;;;;;13.07;5.93;;;;;;;;;;4974359;28;20035;-71
2021/07/15 14:06:15;;;;;;;10.68;6.05;;;;;;;;;;4975273;28;20168;-71
2021/07/15 14:08:41;;;;;;;11.15;6.63;;;;;;;;;;4978384;28;20033;-71
2021/07/15 14:11:10;;;;;;;14.65;8.13;;;;;;;;;;4978757;28;20552;-71
2021/07/15 14:13:37;;;;;;;12.70;6.65;;;;;;;;;;4978239;28;20037;-70
2021/07/15 14:16:03;;;;;;;11.13;6.35;;;;;;;;;;4978473;28;20034;-70
2021/07/15 14:18:29;;;;;;;10.95;6.72;;;;;;;;;;4978584;28;20026;-71
2021/07/15 14:20:56;;;;;;;13.88;6.20;;;;;;;;;;4978525;28;20062;-71
2021/07/15 14:23:23;;;;;;;15.70;8.00;;;;;;;;;;4978078;28;20029;-71
2021/07/15 14:25:50;;;;;;;9.57;5.85;;;;;;;;;;4978081;28;20499;-69
2021/07/15 14:28:16;;;;;;;14.02;6.95;;;;;;;;;;4978794;28;20030;-71
2021/07/15 14:30:42;;;;;;;14.75;6.90;;;;;;;;;;4978293;28;20427;-71
2021/07/15 14:33:08;;;;;;;11.98;6.47;;;;;;;;;;4977900;28;20027;-71
2021/07/15 14:35:35;;;;;;;7.85;5.93;;;;;;;;;;4978265;28;20031;-71
2021/07/15 14:38:01;;;;;;;13.30;6.95;;;;;;;;;;4977676;28;20023;-71
2021/07/15 14:40:28;;;;;;;9.52;5.85;;;;;;;;;;4978485;28;20038;-70